sensor_id;sensor_type;location;lat;lon;timestamp;temperature;humidity
5806;DHT22;2929;50.810;8.342;2023-05-07T00:02:20;12.90;99.90
5806;DHT22;2929;50.810;8.342;2023-05-07T00:04:47;12.90;99.90
5806;DHT22;2929;50.810;8.342;2023-05-07T00:07:14;12.90;99.90
5806;DHT22;2929;50.810;8.342;2023-05-07T00:09:41;12.90;99.90
5806;DHT22;2929;50.810;8.342;2023-05-07T00:12:09;12.90;99.90
5806;DHT22;2929;50.810;8.342;2023-05-07T00:14:36;12.80;99.90
5806;DHT22;2929;50.810;8.342;2023-05-07T00:17:03;12.70;99.90
5806;DHT22;2929;50.810;8.342;2023-05-07T00:19:31;12.70;99.90
5806;DHT22;2929;50.810;8.342;2023-05-07T00:21:58;12.60;99.90
5806;DHT22;2929;50.810;8.342;2023-05-07T00:24:25;12.70;99.90
5806;DHT22;2929;50.810;8.342;2023-05-07T00:26:52;12.70;99.90
5806;DHT22;2929;50.810;8.342;2023-05-07T00:29:20;12.60;99.90
5806;DHT22;2929;50.810;8.342;2023-05-07T00:31:49;12.60;99.90
5806;DHT22;2929;50.810;8.342;2023-05-07T00:34:16;12.50;99.90
5806;DHT22;2929;50.810;8.342;2023-05-07T00:36:43;12.50;99.90
5806;DHT22;2929;50.810;8.342;2023-05-07T00:39:10;12.40;99.90
5806;DHT22;2929;50.810;8.342;2023-05-07T00:41:37;12.40;99.90
5806;DHT22;2929;50.810;8.342;2023-05-07T00:44:04;12.50;99.90
5806;DHT22;2929;50.810;8.342;2023-05-07T00:46:33;12.40;99.90
5806;DHT22;2929;50.810;8.342;2023-05-07T00:49:01;12.50;99.90
5806;DHT22;2929;50.810;8.342;2023-05-07T00:51:29;12.50;99.90
5806;DHT22;2929;50.810;8.342;2023-05-07T00:53:56;12.50;99.90
5806;DHT22;2929;50.810;8.342;2023-05-07T00:56:24;12.50;99.90
5806;DHT22;2929;50.810;8.342;2023-05-07T00:58:51;12.40;99.90
5806;DHT22;2929;50.810;8.342;2023-05-07T01:01:18;12.50;99.90
5806;DHT22;2929;50.810;8.342;2023-05-07T01:03:47;12.50;99.90
5806;DHT22;2929;50.810;8.342;2023-05-07T01:06:15;12.60;99.90
5806;DHT22;2929;50.810;8.342;2023-05-07T01:08:43;12.60;99.90
5806;DHT22;2929;50.810;8.342;2023-05-07T01:11:11;12.60;99.90
5806;DHT22;2929;50.810;8.342;2023-05-07T01:13:38;12.60;99.90
5806;DHT22;2929;50.810;8.342;2023-05-07T01:16:06;12.70;99.90
5806;DHT22;2929;50.810;8.342;2023-05-07T01:18:35;12.70;99.90
5806;DHT22;2929;50.810;8.342;2023-05-07T01:21:04;12.70;99.90
5806;DHT22;2929;50.810;8.342;2023-05-07T01:23:33;12.70;99.90
5806;DHT22;2929;50.810;8.342;2023-05-07T01:26:02;12.70;99.90
5806;DHT22;2929;50.810;8.342;2023-05-07T01:28:31;12.70;99.90
5806;DHT22;2929;50.810;8.342;2023-05-07T01:31:01;12.70;99.90
5806;DHT22;2929;50.810;8.342;2023-05-07T01:33:32;12.70;99.90
5806;DHT22;2929;50.810;8.342;2023-05-07T01:36:00;12.60;99.90
5806;DHT22;2929;50.810;8.342;2023-05-07T01:38:30;12.60;99.90
5806;DHT22;2929;50.810;8.342;2023-05-07T01:40:58;12.60;99.90
5806;DHT22;2929;50.810;8.342;2023-05-07T01:43:26;12.60;99.90
5806;DHT22;2929;50.810;8.342;2023-05-07T01:45:53;12.50;99.90
5806;DHT22;2929;50.810;8.342;2023-05-07T01:48:21;12.50;99.90
5806;DHT22;2929;50.810;8.342;2023-05-07T01:50:48;12.50;99.90
5806;DHT22;2929;50.810;8.342;2023-05-07T01:53:16;12.50;99.90
5806;DHT22;2929;50.810;8.342;2023-05-07T01:55:43;12.50;99.90
5806;DHT22;2929;50.810;8.342;2023-05-07T01:58:12;12.50;99.90
5806;DHT22;2929;50.810;8.342;2023-05-07T02:00:39;12.50;99.90
5806;DHT22;2929;50.810;8.342;2023-05-07T02:03:07;12.50;99.90
5806;DHT22;2929;50.810;8.342;2023-05-07T02:05:44;12.50;99.90
5806;DHT22;2929;50.810;8.342;2023-05-07T02:08:19;12.50;99.90
5806;DHT22;2929;50.810;8.342;2023-05-07T02:10:46;12.60;99.90
5806;DHT22;2929;50.810;8.342;2023-05-07T02:13:14;12.60;99.90
5806;DHT22;2929;50.810;8.342;2023-05-07T02:15:41;12.50;99.90
5806;DHT22;2929;50.810;8.342;2023-05-07T02:18:10;12.50;99.90
5806;DHT22;2929;50.810;8.342;2023-05-07T02:20:37;12.50;99.90
5806;DHT22;2929;50.810;8.342;2023-05-07T02:23:04;12.50;99.90
5806;DHT22;2929;50.810;8.342;2023-05-07T02:25:31;12.50;99.90
5806;DHT22;2929;50.810;8.342;2023-05-07T02:27:58;12.50;99.90
5806;DHT22;2929;50.810;8.342;2023-05-07T02:30:42;12.50;99.90
5806;DHT22;2929;50.810;8.342;2023-05-07T02:33:10;12.40;99.90
5806;DHT22;2929;50.810;8.342;2023-05-07T02:35:38;12.40;99.90
5806;DHT22;2929;50.810;8.342;2023-05-07T02:38:05;12.40;99.90
5806;DHT22;2929;50.810;8.342;2023-05-07T02:40:34;12.30;99.90
5806;DHT22;2929;50.810;8.342;2023-05-07T02:43:04;12.30;99.90
5806;DHT22;2929;50.810;8.342;2023-05-07T02:45:32;12.30;99.90
5806;DHT22;2929;50.810;8.342;2023-05-07T02:48:02;12.30;99.90
5806;DHT22;2929;50.810;8.342;2023-05-07T02:50:29;12.30;99.90
5806;DHT22;2929;50.810;8.342;2023-05-07T02:52:58;12.30;99.90
5806;DHT22;2929;50.810;8.342;2023-05-07T02:55:25;12.30;99.90
5806;DHT22;2929;50.810;8.342;2023-05-07T02:57:52;12.30;99.90
5806;DHT22;2929;50.810;8.342;2023-05-07T03:00:21;12.30;99.90
5806;DHT22;2929;50.810;8.342;2023-05-07T03:03:02;12.30;99.90
5806;DHT22;2929;50.810;8.342;2023-05-07T03:05:29;12.40;99.90
5806;DHT22;2929;50.810;8.342;2023-05-07T03:07:57;12.40;99.90
5806;DHT22;2929;50.810;8.342;2023-05-07T03:10:24;12.30;99.90
5806;DHT22;2929;50.810;8.342;2023-05-07T03:12:51;12.30;99.90
5806;DHT22;2929;50.810;8.342;2023-05-07T03:15:18;12.30;99.90
5806;DHT22;2929;50.810;8.342;2023-05-07T03:17:45;12.30;99.90
5806;DHT22;2929;50.810;8.342;2023-05-07T03:20:14;12.30;99.90
5806;DHT22;2929;50.810;8.342;2023-05-07T03:22:41;12.30;99.90
5806;DHT22;2929;50.810;8.342;2023-05-07T03:25:09;12.30;99.90
5806;DHT22;2929;50.810;8.342;2023-05-07T03:27:36;12.30;99.90
5806;DHT22;2929;50.810;8.342;2023-05-07T03:30:04;12.30;99.90
5806;DHT22;2929;50.810;8.342;2023-05-07T03:32:32;12.30;99.90
5806;DHT22;2929;50.810;8.342;2023-05-07T03:34:59;12.40;99.90
5806;DHT22;2929;50.810;8.342;2023-05-07T03:37:27;12.30;99.90
5806;DHT22;2929;50.810;8.342;2023-05-07T03:39:54;12.30;99.90
5806;DHT22;2929;50.810;8.342;2023-05-07T03:42:22;12.30;99.90
5806;DHT22;2929;50.810;8.342;2023-05-07T03:44:51;12.30;99.90
5806;DHT22;2929;50.810;8.342;2023-05-07T03:47:19;12.40;99.90
5806;DHT22;2929;50.810;8.342;2023-05-07T03:49:46;12.40;99.90
5806;DHT22;2929;50.810;8.342;2023-05-07T03:52:14;12.40;99.90
5806;DHT22;2929;50.810;8.342;2023-05-07T03:54:43;12.40;99.90
5806;DHT22;2929;50.810;8.342;2023-05-07T03:57:13;12.40;99.90
5806;DHT22;2929;50.810;8.342;2023-05-07T03:59:41;12.30;99.90
5806;DHT22;2929;50.810;8.342;2023-05-07T04:02:08;12.30;99.90
5806;DHT22;2929;50.810;8.342;2023-05-07T04:04:35;12.30;99.90
5806;DHT22;2929;50.810;8.342;2023-05-07T04:07:02;12.30;99.90
5806;DHT22;2929;50.810;8.342;2023-05-07T04:09:32;12.40;99.90
5806;DHT22;2929;50.810;8.342;2023-05-07T04:12:01;12.30;99.90
5806;DHT22;2929;50.810;8.342;2023-05-07T04:14:28;12.30;99.90
5806;DHT22;2929;50.810;8.342;2023-05-07T04:16:58;12.30;99.90
5806;DHT22;2929;50.810;8.342;2023-05-07T04:19:26;12.20;99.90
5806;DHT22;2929;50.810;8.342;2023-05-07T04:21:54;12.30;99.90
5806;DHT22;2929;50.810;8.342;2023-05-07T04:24:21;12.30;99.90
5806;DHT22;2929;50.810;8.342;2023-05-07T04:26:48;12.40;99.90
5806;DHT22;2929;50.810;8.342;2023-05-07T04:29:18;12.40;99.90
5806;DHT22;2929;50.810;8.342;2023-05-07T04:31:45;12.40;99.90
5806;DHT22;2929;50.810;8.342;2023-05-07T04:34:12;12.50;99.90
5806;DHT22;2929;50.810;8.342;2023-05-07T04:36:40;12.40;99.90
5806;DHT22;2929;50.810;8.342;2023-05-07T04:39:10;12.50;99.90
5806;DHT22;2929;50.810;8.342;2023-05-07T04:41:40;12.50;99.90
5806;DHT22;2929;50.810;8.342;2023-05-07T04:44:08;12.50;99.90
5806;DHT22;2929;50.810;8.342;2023-05-07T04:46:38;12.50;99.90
5806;DHT22;2929;50.810;8.342;2023-05-07T04:49:05;12.50;99.90
5806;DHT22;2929;50.810;8.342;2023-05-07T04:51:32;12.50;99.90
5806;DHT22;2929;50.810;8.342;2023-05-07T04:53:59;12.60;99.90
5806;DHT22;2929;50.810;8.342;2023-05-07T04:56:28;12.50;99.90
5806;DHT22;2929;50.810;8.342;2023-05-07T04:58:56;12.50;99.90
5806;DHT22;2929;50.810;8.342;2023-05-07T05:01:24;12.50;99.90
5806;DHT22;2929;50.810;8.342;2023-05-07T05:03:52;12.60;99.90
5806;DHT22;2929;50.810;8.342;2023-05-07T05:06:20;12.60;99.90
5806;DHT22;2929;50.810;8.342;2023-05-07T05:08:47;12.60;99.90
5806;DHT22;2929;50.810;8.342;2023-05-07T05:11:14;12.60;99.90
5806;DHT22;2929;50.810;8.342;2023-05-07T05:13:41;12.60;99.90
5806;DHT22;2929;50.810;8.342;2023-05-07T05:16:12;12.70;99.90
5806;DHT22;2929;50.810;8.342;2023-05-07T05:18:40;12.70;99.90
5806;DHT22;2929;50.810;8.342;2023-05-07T05:21:10;12.80;99.90
5806;DHT22;2929;50.810;8.342;2023-05-07T05:23:37;12.80;99.90
5806;DHT22;2929;50.810;8.342;2023-05-07T05:26:05;12.80;99.90
5806;DHT22;2929;50.810;8.342;2023-05-07T05:28:33;12.90;99.90
5806;DHT22;2929;50.810;8.342;2023-05-07T05:31:01;12.90;99.90
5806;DHT22;2929;50.810;8.342;2023-05-07T05:33:32;12.90;99.90
5806;DHT22;2929;50.810;8.342;2023-05-07T05:36:03;13.00;99.90
5806;DHT22;2929;50.810;8.342;2023-05-07T05:38:32;13.00;99.90
5806;DHT22;2929;50.810;8.342;2023-05-07T05:41:00;13.00;99.90
5806;DHT22;2929;50.810;8.342;2023-05-07T05:43:28;13.00;99.90
5806;DHT22;2929;50.810;8.342;2023-05-07T05:45:55;13.00;99.90
5806;DHT22;2929;50.810;8.342;2023-05-07T05:48:22;13.10;99.90
5806;DHT22;2929;50.810;8.342;2023-05-07T05:50:49;13.10;99.90
5806;DHT22;2929;50.810;8.342;2023-05-07T05:53:18;13.10;99.90
5806;DHT22;2929;50.810;8.342;2023-05-07T05:55:46;13.10;99.90
5806;DHT22;2929;50.810;8.342;2023-05-07T05:58:13;13.20;99.90
5806;DHT22;2929;50.810;8.342;2023-05-07T06:00:48;13.30;99.90
5806;DHT22;2929;50.810;8.342;2023-05-07T06:03:18;13.30;99.90
5806;DHT22;2929;50.810;8.342;2023-05-07T06:05:45;13.30;99.90
5806;DHT22;2929;50.810;8.342;2023-05-07T06:08:12;13.40;99.90
5806;DHT22;2929;50.810;8.342;2023-05-07T06:10:40;13.40;99.90
5806;DHT22;2929;50.810;8.342;2023-05-07T06:13:09;13.50;99.90
5806;DHT22;2929;50.810;8.342;2023-05-07T06:15:37;13.50;99.90
5806;DHT22;2929;50.810;8.342;2023-05-07T06:18:08;13.60;99.90
5806;DHT22;2929;50.810;8.342;2023-05-07T06:20:35;13.60;99.90
5806;DHT22;2929;50.810;8.342;2023-05-07T06:23:05;13.60;99.90
5806;DHT22;2929;50.810;8.342;2023-05-07T06:25:34;13.60;99.90
5806;DHT22;2929;50.810;8.342;2023-05-07T06:28:01;13.60;99.90
5806;DHT22;2929;50.810;8.342;2023-05-07T06:30:29;13.70;99.90
5806;DHT22;2929;50.810;8.342;2023-05-07T06:32:56;13.60;99.90
5806;DHT22;2929;50.810;8.342;2023-05-07T06:35:25;13.70;99.90
5806;DHT22;2929;50.810;8.342;2023-05-07T06:37:53;13.70;99.90
5806;DHT22;2929;50.810;8.342;2023-05-07T06:40:23;13.80;99.90
5806;DHT22;2929;50.810;8.342;2023-05-07T06:42:50;13.80;99.90
5806;DHT22;2929;50.810;8.342;2023-05-07T06:45:35;13.90;99.90
5806;DHT22;2929;50.810;8.342;2023-05-07T06:48:04;14.00;99.90
5806;DHT22;2929;50.810;8.342;2023-05-07T06:50:37;14.00;99.90
5806;DHT22;2929;50.810;8.342;2023-05-07T06:53:04;14.00;99.90
5806;DHT22;2929;50.810;8.342;2023-05-07T06:55:32;14.10;99.90
5806;DHT22;2929;50.810;8.342;2023-05-07T06:57:59;14.10;99.90
5806;DHT22;2929;50.810;8.342;2023-05-07T07:00:27;14.10;99.90
5806;DHT22;2929;50.810;8.342;2023-05-07T07:02:57;14.20;99.90
5806;DHT22;2929;50.810;8.342;2023-05-07T07:05:27;14.40;99.90
5806;DHT22;2929;50.810;8.342;2023-05-07T07:07:54;14.30;99.90
5806;DHT22;2929;50.810;8.342;2023-05-07T07:10:23;14.40;99.90
5806;DHT22;2929;50.810;8.342;2023-05-07T07:12:51;14.50;99.90
5806;DHT22;2929;50.810;8.342;2023-05-07T07:15:20;14.50;99.90
5806;DHT22;2929;50.810;8.342;2023-05-07T07:17:48;14.40;99.90
5806;DHT22;2929;50.810;8.342;2023-05-07T07:20:17;14.50;99.90
5806;DHT22;2929;50.810;8.342;2023-05-07T07:22:44;14.40;99.90
5806;DHT22;2929;50.810;8.342;2023-05-07T07:25:12;14.50;99.90
5806;DHT22;2929;50.810;8.342;2023-05-07T07:27:39;14.50;99.90
5806;DHT22;2929;50.810;8.342;2023-05-07T07:30:07;14.70;99.90
5806;DHT22;2929;50.810;8.342;2023-05-07T07:32:37;14.70;99.90
5806;DHT22;2929;50.810;8.342;2023-05-07T07:35:05;14.80;99.90
5806;DHT22;2929;50.810;8.342;2023-05-07T07:37:34;14.70;99.90
5806;DHT22;2929;50.810;8.342;2023-05-07T07:40:01;14.80;99.90
5806;DHT22;2929;50.810;8.342;2023-05-07T07:42:29;14.90;99.90
5806;DHT22;2929;50.810;8.342;2023-05-07T07:44:57;15.00;99.90
5806;DHT22;2929;50.810;8.342;2023-05-07T07:47:26;15.00;99.90
5806;DHT22;2929;50.810;8.342;2023-05-07T07:49:53;14.80;99.90
5806;DHT22;2929;50.810;8.342;2023-05-07T07:52:21;15.00;99.90
5806;DHT22;2929;50.810;8.342;2023-05-07T07:54:49;15.20;99.90
5806;DHT22;2929;50.810;8.342;2023-05-07T07:57:16;15.30;99.90
5806;DHT22;2929;50.810;8.342;2023-05-07T07:59:43;15.30;99.90
5806;DHT22;2929;50.810;8.342;2023-05-07T08:02:12;15.40;99.90
5806;DHT22;2929;50.810;8.342;2023-05-07T08:04:40;15.50;99.90
5806;DHT22;2929;50.810;8.342;2023-05-07T08:07:09;15.70;99.90
5806;DHT22;2929;50.810;8.342;2023-05-07T08:09:39;15.70;99.90
5806;DHT22;2929;50.810;8.342;2023-05-07T08:12:09;15.80;99.90
5806;DHT22;2929;50.810;8.342;2023-05-07T08:14:37;15.90;99.90
5806;DHT22;2929;50.810;8.342;2023-05-07T08:17:06;16.00;99.90
5806;DHT22;2929;50.810;8.342;2023-05-07T08:19:36;16.00;99.90
5806;DHT22;2929;50.810;8.342;2023-05-07T08:22:05;15.90;99.90
5806;DHT22;2929;50.810;8.342;2023-05-07T08:24:33;15.90;99.90
5806;DHT22;2929;50.810;8.342;2023-05-07T08:27:00;15.80;99.90
5806;DHT22;2929;50.810;8.342;2023-05-07T08:29:28;15.90;99.90
5806;DHT22;2929;50.810;8.342;2023-05-07T08:31:55;16.00;99.90
5806;DHT22;2929;50.810;8.342;2023-05-07T08:34:22;15.90;99.90
5806;DHT22;2929;50.810;8.342;2023-05-07T08:36:51;15.80;99.90
5806;DHT22;2929;50.810;8.342;2023-05-07T08:39:21;16.00;99.90
5806;DHT22;2929;50.810;8.342;2023-05-07T08:41:55;16.30;99.90
5806;DHT22;2929;50.810;8.342;2023-05-07T08:44:27;16.40;99.90
5806;DHT22;2929;50.810;8.342;2023-05-07T08:46:56;16.50;99.90
5806;DHT22;2929;50.810;8.342;2023-05-07T08:49:26;16.60;99.90
5806;DHT22;2929;50.810;8.342;2023-05-07T08:51:54;16.60;99.90
5806;DHT22;2929;50.810;8.342;2023-05-07T08:54:21;16.50;99.90
5806;DHT22;2929;50.810;8.342;2023-05-07T08:56:49;16.50;99.90
5806;DHT22;2929;50.810;8.342;2023-05-07T08:59:16;16.40;99.90
5806;DHT22;2929;50.810;8.342;2023-05-07T09:01:46;16.50;99.90
5806;DHT22;2929;50.810;8.342;2023-05-07T09:04:13;16.50;99.90
5806;DHT22;2929;50.810;8.342;2023-05-07T09:06:41;16.60;99.90
5806;DHT22;2929;50.810;8.342;2023-05-07T09:09:14;16.70;99.90
5806;DHT22;2929;50.810;8.342;2023-05-07T09:11:41;16.80;99.90
5806;DHT22;2929;50.810;8.342;2023-05-07T09:14:09;17.00;99.90
5806;DHT22;2929;50.810;8.342;2023-05-07T09:16:40;17.00;99.90
5806;DHT22;2929;50.810;8.342;2023-05-07T09:19:15;16.90;99.90
5806;DHT22;2929;50.810;8.342;2023-05-07T09:21:45;16.90;99.90
5806;DHT22;2929;50.810;8.342;2023-05-07T09:24:15;16.90;99.90
5806;DHT22;2929;50.810;8.342;2023-05-07T09:26:43;16.90;99.90
5806;DHT22;2929;50.810;8.342;2023-05-07T09:29:11;16.90;99.90
5806;DHT22;2929;50.810;8.342;2023-05-07T09:31:39;17.10;99.90
5806;DHT22;2929;50.810;8.342;2023-05-07T09:34:09;17.10;99.90
5806;DHT22;2929;50.810;8.342;2023-05-07T09:36:40;17.30;99.90
5806;DHT22;2929;50.810;8.342;2023-05-07T09:39:07;17.40;99.90
5806;DHT22;2929;50.810;8.342;2023-05-07T09:41:43;17.40;99.90
5806;DHT22;2929;50.810;8.342;2023-05-07T09:44:15;17.20;99.90
5806;DHT22;2929;50.810;8.342;2023-05-07T09:46:50;17.20;99.90
5806;DHT22;2929;50.810;8.342;2023-05-07T09:49:23;17.50;99.90
5806;DHT22;2929;50.810;8.342;2023-05-07T09:52:01;17.40;99.90
5806;DHT22;2929;50.810;8.342;2023-05-07T09:54:31;17.50;99.90
5806;DHT22;2929;50.810;8.342;2023-05-07T09:57:01;17.90;99.90
5806;DHT22;2929;50.810;8.342;2023-05-07T09:59:31;17.90;99.90
5806;DHT22;2929;50.810;8.342;2023-05-07T10:02:03;18.30;99.90
5806;DHT22;2929;50.810;8.342;2023-05-07T10:04:31;18.20;99.90
5806;DHT22;2929;50.810;8.342;2023-05-07T10:07:00;18.20;99.90
5806;DHT22;2929;50.810;8.342;2023-05-07T10:09:31;18.40;99.90
5806;DHT22;2929;50.810;8.342;2023-05-07T10:11:58;18.60;99.90
5806;DHT22;2929;50.810;8.342;2023-05-07T10:14:28;18.70;99.90
5806;DHT22;2929;50.810;8.342;2023-05-07T10:16:56;18.80;99.90
5806;DHT22;2929;50.810;8.342;2023-05-07T10:19:24;18.90;99.90
5806;DHT22;2929;50.810;8.342;2023-05-07T10:21:55;19.00;99.90
5806;DHT22;2929;50.810;8.342;2023-05-07T10:24:29;19.30;99.90
5806;DHT22;2929;50.810;8.342;2023-05-07T10:26:59;19.80;99.90
5806;DHT22;2929;50.810;8.342;2023-05-07T10:29:33;19.70;99.90
5806;DHT22;2929;50.810;8.342;2023-05-07T10:32:14;19.70;99.90
5806;DHT22;2929;50.810;8.342;2023-05-07T10:34:47;19.80;99.90
5806;DHT22;2929;50.810;8.342;2023-05-07T10:37:16;20.00;99.90
5806;DHT22;2929;50.810;8.342;2023-05-07T10:39:45;20.20;99.90
5806;DHT22;2929;50.810;8.342;2023-05-07T10:42:14;20.10;99.90
5806;DHT22;2929;50.810;8.342;2023-05-07T10:44:47;20.00;99.90
5806;DHT22;2929;50.810;8.342;2023-05-07T10:50:26;20.70;99.90
5806;DHT22;2929;50.810;8.342;2023-05-07T10:53:29;21.10;99.90
5806;DHT22;2929;50.810;8.342;2023-05-07T10:56:34;20.90;99.90
5806;DHT22;2929;50.810;8.342;2023-05-07T10:59:37;21.00;99.90
5806;DHT22;2929;50.810;8.342;2023-05-07T11:02:18;20.60;99.90
5806;DHT22;2929;50.810;8.342;2023-05-07T11:05:20;20.50;99.90
5806;DHT22;2929;50.810;8.342;2023-05-07T11:08:11;20.30;99.90
5806;DHT22;2929;50.810;8.342;2023-05-07T11:11:01;20.40;99.90
5806;DHT22;2929;50.810;8.342;2023-05-07T11:13:45;20.40;99.90
5806;DHT22;2929;50.810;8.342;2023-05-07T11:16:22;20.70;99.90
5806;DHT22;2929;50.810;8.342;2023-05-07T11:18:55;21.00;99.90
5806;DHT22;2929;50.810;8.342;2023-05-07T11:21:34;20.80;99.90
5806;DHT22;2929;50.810;8.342;2023-05-07T11:24:39;20.70;99.90
5806;DHT22;2929;50.810;8.342;2023-05-07T11:27:06;20.70;99.90
5806;DHT22;2929;50.810;8.342;2023-05-07T11:29:35;20.60;99.90
5806;DHT22;2929;50.810;8.342;2023-05-07T11:32:07;20.50;99.90
5806;DHT22;2929;50.810;8.342;2023-05-07T11:34:41;20.70;99.90
5806;DHT22;2929;50.810;8.342;2023-05-07T11:37:09;20.80;99.90
5806;DHT22;2929;50.810;8.342;2023-05-07T11:39:48;20.70;99.90
5806;DHT22;2929;50.810;8.342;2023-05-07T11:42:29;20.80;99.90
5806;DHT22;2929;50.810;8.342;2023-05-07T11:44:58;20.40;99.90
5806;DHT22;2929;50.810;8.342;2023-05-07T11:47:25;20.40;99.90
5806;DHT22;2929;50.810;8.342;2023-05-07T11:49:53;20.40;99.90
5806;DHT22;2929;50.810;8.342;2023-05-07T11:52:23;20.60;99.90
5806;DHT22;2929;50.810;8.342;2023-05-07T11:54:50;20.60;99.90
5806;DHT22;2929;50.810;8.342;2023-05-07T11:57:19;20.70;99.90
5806;DHT22;2929;50.810;8.342;2023-05-07T11:59:46;20.90;99.90
5806;DHT22;2929;50.810;8.342;2023-05-07T12:02:16;21.00;99.90
5806;DHT22;2929;50.810;8.342;2023-05-07T12:04:44;21.20;99.90
5806;DHT22;2929;50.810;8.342;2023-05-07T12:07:14;21.20;99.90
5806;DHT22;2929;50.810;8.342;2023-05-07T12:09:45;21.20;99.90
5806;DHT22;2929;50.810;8.342;2023-05-07T12:12:13;21.50;99.90
5806;DHT22;2929;50.810;8.342;2023-05-07T12:14:42;21.80;99.90
5806;DHT22;2929;50.810;8.342;2023-05-07T12:17:11;21.90;99.90
5806;DHT22;2929;50.810;8.342;2023-05-07T12:19:42;21.60;99.90
5806;DHT22;2929;50.810;8.342;2023-05-07T12:22:09;21.50;99.90
5806;DHT22;2929;50.810;8.342;2023-05-07T12:24:47;21.90;99.90
5806;DHT22;2929;50.810;8.342;2023-05-07T12:27:14;21.50;99.90
5806;DHT22;2929;50.810;8.342;2023-05-07T12:29:44;21.50;99.90
5806;DHT22;2929;50.810;8.342;2023-05-07T12:32:13;21.80;99.90
5806;DHT22;2929;50.810;8.342;2023-05-07T12:34:43;21.80;99.90
5806;DHT22;2929;50.810;8.342;2023-05-07T12:37:10;22.10;99.90
5806;DHT22;2929;50.810;8.342;2023-05-07T12:39:42;22.70;99.90
5806;DHT22;2929;50.810;8.342;2023-05-07T12:42:15;22.70;99.90
5806;DHT22;2929;50.810;8.342;2023-05-07T12:44:45;22.70;99.90
5806;DHT22;2929;50.810;8.342;2023-05-07T12:47:13;22.70;99.90
5806;DHT22;2929;50.810;8.342;2023-05-07T12:49:43;23.00;99.90
5806;DHT22;2929;50.810;8.342;2023-05-07T12:52:11;22.90;99.90
5806;DHT22;2929;50.810;8.342;2023-05-07T12:54:39;22.90;99.90
5806;DHT22;2929;50.810;8.342;2023-05-07T12:57:07;22.90;99.90
5806;DHT22;2929;50.810;8.342;2023-05-07T12:59:37;23.20;99.90
5806;DHT22;2929;50.810;8.342;2023-05-07T13:02:04;23.10;99.90
5806;DHT22;2929;50.810;8.342;2023-05-07T13:04:32;23.50;99.90
5806;DHT22;2929;50.810;8.342;2023-05-07T13:07:03;23.70;99.90
5806;DHT22;2929;50.810;8.342;2023-05-07T13:09:31;23.90;99.90
5806;DHT22;2929;50.810;8.342;2023-05-07T13:11:58;24.10;99.90
5806;DHT22;2929;50.810;8.342;2023-05-07T13:14:27;24.00;99.90
5806;DHT22;2929;50.810;8.342;2023-05-07T13:16:54;23.90;99.90
5806;DHT22;2929;50.810;8.342;2023-05-07T13:19:22;23.00;99.90
5806;DHT22;2929;50.810;8.342;2023-05-07T13:21:49;22.80;99.90
5806;DHT22;2929;50.810;8.342;2023-05-07T13:24:17;22.90;99.90
5806;DHT22;2929;50.810;8.342;2023-05-07T13:26:44;23.00;99.90
5806;DHT22;2929;50.810;8.342;2023-05-07T13:29:11;23.20;99.90
5806;DHT22;2929;50.810;8.342;2023-05-07T13:31:38;22.80;99.90
5806;DHT22;2929;50.810;8.342;2023-05-07T13:34:08;22.50;99.90
5806;DHT22;2929;50.810;8.342;2023-05-07T13:36:36;22.40;99.90
5806;DHT22;2929;50.810;8.342;2023-05-07T13:39:05;22.60;99.90
5806;DHT22;2929;50.810;8.342;2023-05-07T13:41:34;22.40;99.90
5806;DHT22;2929;50.810;8.342;2023-05-07T13:44:01;22.30;99.90
5806;DHT22;2929;50.810;8.342;2023-05-07T13:46:28;22.20;99.90
5806;DHT22;2929;50.810;8.342;2023-05-07T13:48:55;22.20;99.90
5806;DHT22;2929;50.810;8.342;2023-05-07T13:51:23;22.30;99.90
5806;DHT22;2929;50.810;8.342;2023-05-07T13:53:50;22.80;99.90
5806;DHT22;2929;50.810;8.342;2023-05-07T13:56:18;23.20;99.90
5806;DHT22;2929;50.810;8.342;2023-05-07T13:58:47;23.00;99.90
5806;DHT22;2929;50.810;8.342;2023-05-07T14:01:14;22.80;99.90
5806;DHT22;2929;50.810;8.342;2023-05-07T14:03:41;22.60;99.90
5806;DHT22;2929;50.810;8.342;2023-05-07T14:06:08;22.80;99.90
5806;DHT22;2929;50.810;8.342;2023-05-07T14:08:35;23.40;99.90
5806;DHT22;2929;50.810;8.342;2023-05-07T14:11:03;23.60;98.30
5806;DHT22;2929;50.810;8.342;2023-05-07T14:13:30;23.70;99.90
5806;DHT22;2929;50.810;8.342;2023-05-07T14:16:00;23.60;99.90
5806;DHT22;2929;50.810;8.342;2023-05-07T14:18:28;23.30;99.50
5806;DHT22;2929;50.810;8.342;2023-05-07T14:20:56;23.00;99.90
5806;DHT22;2929;50.810;8.342;2023-05-07T14:23:23;22.90;99.90
5806;DHT22;2929;50.810;8.342;2023-05-07T14:25:52;22.90;99.90
5806;DHT22;2929;50.810;8.342;2023-05-07T14:28:19;22.70;99.90
5806;DHT22;2929;50.810;8.342;2023-05-07T14:30:47;22.60;99.90
5806;DHT22;2929;50.810;8.342;2023-05-07T14:33:15;22.50;99.90
5806;DHT22;2929;50.810;8.342;2023-05-07T14:35:42;22.60;99.90
5806;DHT22;2929;50.810;8.342;2023-05-07T14:38:13;22.70;99.90
5806;DHT22;2929;50.810;8.342;2023-05-07T14:40:40;22.80;99.90
5806;DHT22;2929;50.810;8.342;2023-05-07T14:43:07;22.80;99.90
5806;DHT22;2929;50.810;8.342;2023-05-07T14:45:35;22.70;99.90
5806;DHT22;2929;50.810;8.342;2023-05-07T14:48:02;22.40;99.90
5806;DHT22;2929;50.810;8.342;2023-05-07T14:50:31;22.30;99.90
5806;DHT22;2929;50.810;8.342;2023-05-07T14:52:58;22.30;99.90
5806;DHT22;2929;50.810;8.342;2023-05-07T14:55:25;22.10;99.90
5806;DHT22;2929;50.810;8.342;2023-05-07T14:57:53;22.10;99.90
5806;DHT22;2929;50.810;8.342;2023-05-07T15:00:20;22.30;99.90
5806;DHT22;2929;50.810;8.342;2023-05-07T15:02:47;22.20;99.90
5806;DHT22;2929;50.810;8.342;2023-05-07T15:05:15;22.10;99.90
5806;DHT22;2929;50.810;8.342;2023-05-07T15:07:44;22.00;99.90
5806;DHT22;2929;50.810;8.342;2023-05-07T15:10:11;21.90;99.90
5806;DHT22;2929;50.810;8.342;2023-05-07T15:12:41;21.90;99.90
5806;DHT22;2929;50.810;8.342;2023-05-07T15:15:09;21.70;99.90
5806;DHT22;2929;50.810;8.342;2023-05-07T15:17:37;21.50;99.90
5806;DHT22;2929;50.810;8.342;2023-05-07T15:20:05;21.50;99.90
5806;DHT22;2929;50.810;8.342;2023-05-07T15:22:32;21.30;99.90
5806;DHT22;2929;50.810;8.342;2023-05-07T15:25:01;21.20;99.90
5806;DHT22;2929;50.810;8.342;2023-05-07T15:27:28;21.20;99.90
5806;DHT22;2929;50.810;8.342;2023-05-07T15:29:56;21.00;99.90
5806;DHT22;2929;50.810;8.342;2023-05-07T15:32:23;20.80;99.90
5806;DHT22;2929;50.810;8.342;2023-05-07T15:34:50;20.60;99.90
5806;DHT22;2929;50.810;8.342;2023-05-07T15:37:17;20.70;99.90
5806;DHT22;2929;50.810;8.342;2023-05-07T15:39:44;20.70;99.90
5806;DHT22;2929;50.810;8.342;2023-05-07T15:42:13;20.70;99.90
5806;DHT22;2929;50.810;8.342;2023-05-07T15:44:40;20.60;99.90
5806;DHT22;2929;50.810;8.342;2023-05-07T15:47:07;20.50;99.90
5806;DHT22;2929;50.810;8.342;2023-05-07T15:49:35;20.40;99.90
5806;DHT22;2929;50.810;8.342;2023-05-07T15:52:03;20.50;99.90
5806;DHT22;2929;50.810;8.342;2023-05-07T15:54:30;20.40;99.90
5806;DHT22;2929;50.810;8.342;2023-05-07T15:56:57;20.40;99.90
5806;DHT22;2929;50.810;8.342;2023-05-07T15:59:26;20.30;99.90
5806;DHT22;2929;50.810;8.342;2023-05-07T16:01:53;20.30;99.90
5806;DHT22;2929;50.810;8.342;2023-05-07T16:04:20;20.30;99.90
5806;DHT22;2929;50.810;8.342;2023-05-07T16:06:47;20.20;99.90
5806;DHT22;2929;50.810;8.342;2023-05-07T16:09:14;20.20;99.90
5806;DHT22;2929;50.810;8.342;2023-05-07T16:11:42;20.10;99.90
5806;DHT22;2929;50.810;8.342;2023-05-07T16:14:09;20.10;99.90
5806;DHT22;2929;50.810;8.342;2023-05-07T16:16:38;20.00;99.90
5806;DHT22;2929;50.810;8.342;2023-05-07T16:19:05;20.00;99.90